sensor_id;sensor_type;location;lat;lon;timestamp;pressure;altitude;pressure_sealevel;temperature;humidity
6393;BME280;3229;42.674;23.282;2023-08-12T00:00:09;95209.00;;;18.67;78.64
6393;BME280;3229;42.674;23.282;2023-08-12T00:02:37;95209.16;;;18.66;78.51
6393;BME280;3229;42.674;23.282;2023-08-12T00:05:05;95204.94;;;18.65;78.60
6393;BME280;3229;42.674;23.282;2023-08-12T00:07:32;95210.31;;;18.63;78.39
6393;BME280;3229;42.674;23.282;2023-08-12T00:10:01;95180.53;;;18.44;78.53
6393;BME280;3229;42.674;23.282;2023-08-12T00:12:29;95207.25;;;18.60;78.34
6393;BME280;3229;42.674;23.282;2023-08-12T00:14:56;95207.44;;;18.58;78.12
6393;BME280;3229;42.674;23.282;2023-08-12T00:17:23;95208.44;;;18.57;78.37
6393;BME280;3229;42.674;23.282;2023-08-12T00:19:50;95206.00;;;18.55;78.31
6393;BME280;3229;42.674;23.282;2023-08-12T00:22:16;95204.38;;;18.54;78.43
6393;BME280;3229;42.674;23.282;2023-08-12T00:24:43;95201.19;;;18.52;78.39
6393;BME280;3229;42.674;23.282;2023-08-12T00:27:12;95203.94;;;18.51;78.38
6393;BME280;3229;42.674;23.282;2023-08-12T00:29:39;95197.16;;;18.50;78.33
6393;BME280;3229;42.674;23.282;2023-08-12T00:32:05;95199.72;;;18.50;78.44
6393;BME280;3229;42.674;23.282;2023-08-12T00:34:32;95195.53;;;18.49;78.57
6393;BME280;3229;42.674;23.282;2023-08-12T00:36:59;95123.25;;;18.01;78.42
6393;BME280;3229;42.674;23.282;2023-08-12T00:39:26;95194.88;;;18.47;78.65
6393;BME280;3229;42.674;23.282;2023-08-12T00:41:53;95195.88;;;18.46;78.46
6393;BME280;3229;42.674;23.282;2023-08-12T00:44:21;95193.63;;;18.43;78.68
6393;BME280;3229;42.674;23.282;2023-08-12T00:46:48;95194.63;;;18.42;78.79
6393;BME280;3229;42.674;23.282;2023-08-12T00:49:16;95199.78;;;18.42;78.83
6393;BME280;3229;42.674;23.282;2023-08-12T00:51:44;95196.91;;;18.37;79.04
6393;BME280;3229;42.674;23.282;2023-08-12T00:54:14;95193.53;;;18.36;79.37
6393;BME280;3229;42.674;23.282;2023-08-12T00:56:41;95193.25;;;18.31;79.61
6393;BME280;3229;42.674;23.282;2023-08-12T00:59:09;95181.78;;;18.25;79.79
6393;BME280;3229;42.674;23.282;2023-08-12T01:01:39;95194.72;;;18.25;79.89
6393;BME280;3229;42.674;23.282;2023-08-12T01:04:07;95188.75;;;18.25;79.92
6393;BME280;3229;42.674;23.282;2023-08-12T01:06:34;95184.88;;;18.21;80.12
6393;BME280;3229;42.674;23.282;2023-08-12T01:09:01;95164.47;;;18.03;80.19
6393;BME280;3229;42.674;23.282;2023-08-12T01:11:36;95187.19;;;18.16;80.02
6393;BME280;3229;42.674;23.282;2023-08-12T01:14:08;95178.97;;;18.12;80.16
6393;BME280;3229;42.674;23.282;2023-08-12T01:16:44;95178.34;;;18.10;80.13
6393;BME280;3229;42.674;23.282;2023-08-12T01:19:21;95175.09;;;18.08;80.00
6393;BME280;3229;42.674;23.282;2023-08-12T01:21:52;95179.66;;;18.06;79.81
6393;BME280;3229;42.674;23.282;2023-08-12T01:24:24;95182.06;;;18.08;79.88
6393;BME280;3229;42.674;23.282;2023-08-12T01:26:51;95181.59;;;18.04;79.97
6393;BME280;3229;42.674;23.282;2023-08-12T01:29:18;95174.34;;;17.99;80.06
6393;BME280;3229;42.674;23.282;2023-08-12T01:31:48;95176.78;;;18.01;79.70
6393;BME280;3229;42.674;23.282;2023-08-12T01:34:22;95177.75;;;18.00;79.78
6393;BME280;3229;42.674;23.282;2023-08-12T01:36:55;95175.50;;;17.97;79.62
6393;BME280;3229;42.674;23.282;2023-08-12T01:39:26;95167.44;;;17.92;79.49
6393;BME280;3229;42.674;23.282;2023-08-12T01:41:54;95173.06;;;17.95;79.27
6393;BME280;3229;42.674;23.282;2023-08-12T01:44:22;95167.44;;;17.92;79.39
6393;BME280;3229;42.674;23.282;2023-08-12T01:46:49;95157.66;;;17.79;79.59
6393;BME280;3229;42.674;23.282;2023-08-12T01:49:16;95178.94;;;17.89;79.60
6393;BME280;3229;42.674;23.282;2023-08-12T01:51:43;95179.94;;;17.88;79.88
6393;BME280;3229;42.674;23.282;2023-08-12T01:54:10;95175.09;;;17.85;79.98
6393;BME280;3229;42.674;23.282;2023-08-12T01:56:38;95181.41;;;17.83;80.02
6393;BME280;3229;42.674;23.282;2023-08-12T01:59:05;95179.00;;;17.81;79.92
6393;BME280;3229;42.674;23.282;2023-08-12T02:01:31;95176.91;;;17.76;80.03
6393;BME280;3229;42.674;23.282;2023-08-12T02:03:58;95180.63;;;17.74;80.01
6393;BME280;3229;42.674;23.282;2023-08-12T02:06:25;95179.97;;;17.72;80.18
6393;BME280;3229;42.674;23.282;2023-08-12T02:08:52;95179.31;;;17.70;79.95
6393;BME280;3229;42.674;23.282;2023-08-12T02:11:18;95177.41;;;17.72;79.80
6393;BME280;3229;42.674;23.282;2023-08-12T02:13:46;95178.03;;;17.74;79.50
6393;BME280;3229;42.674;23.282;2023-08-12T02:16:13;95174.63;;;17.73;79.35
6393;BME280;3229;42.674;23.282;2023-08-12T02:18:40;95175.94;;;17.69;79.61
6393;BME280;3229;42.674;23.282;2023-08-12T02:21:07;95177.91;;;17.67;79.86
6393;BME280;3229;42.674;23.282;2023-08-12T02:23:33;95158.06;;;17.60;79.84
6393;BME280;3229;42.674;23.282;2023-08-12T02:26:01;95170.81;;;17.61;80.14
6393;BME280;3229;42.674;23.282;2023-08-12T02:28:28;95172.78;;;17.59;80.23
6393;BME280;3229;42.674;23.282;2023-08-12T02:30:56;95136.66;;;17.35;80.24
6393;BME280;3229;42.674;23.282;2023-08-12T02:33:23;95176.84;;;17.53;80.24
6393;BME280;3229;42.674;23.282;2023-08-12T02:35:52;95170.22;;;17.51;80.35
6393;BME280;3229;42.674;23.282;2023-08-12T02:38:19;95171.84;;;17.44;80.50
6393;BME280;3229;42.674;23.282;2023-08-12T02:40:47;95172.50;;;17.46;80.19
6393;BME280;3229;42.674;23.282;2023-08-12T02:43:14;95177.84;;;17.44;80.28
6393;BME280;3229;42.674;23.282;2023-08-12T02:45:41;95175.28;;;17.44;79.85
6393;BME280;3229;42.674;23.282;2023-08-12T02:48:09;95172.34;;;17.39;79.65
6393;BME280;3229;42.674;23.282;2023-08-12T02:50:36;95183.81;;;17.45;79.42
6393;BME280;3229;42.674;23.282;2023-08-12T02:53:04;95172.34;;;17.39;79.26
6393;BME280;3229;42.674;23.282;2023-08-12T02:55:31;95181.38;;;17.43;79.24
6393;BME280;3229;42.674;23.282;2023-08-12T02:57:58;95182.38;;;17.42;78.95
6393;BME280;3229;42.674;23.282;2023-08-12T03:00:25;95189.94;;;17.44;78.92
6393;BME280;3229;42.674;23.282;2023-08-12T03:02:52;95186.41;;;17.45;78.70
6393;BME280;3229;42.674;23.282;2023-08-12T03:05:21;95180.44;;;17.44;78.44
6393;BME280;3229;42.674;23.282;2023-08-12T03:07:48;95183.81;;;17.45;78.26
6393;BME280;3229;42.674;23.282;2023-08-12T03:10:15;95186.84;;;17.48;77.90
6393;BME280;3229;42.674;23.282;2023-08-12T03:12:42;95181.69;;;17.48;78.10
6393;BME280;3229;42.674;23.282;2023-08-12T03:15:09;95181.06;;;17.46;78.18
6393;BME280;3229;42.674;23.282;2023-08-12T03:17:36;95189.31;;;17.50;78.14
6393;BME280;3229;42.674;23.282;2023-08-12T03:20:05;95196.41;;;17.48;78.39
6393;BME280;3229;42.674;23.282;2023-08-12T03:22:35;95184.78;;;17.44;78.27
6393;BME280;3229;42.674;23.282;2023-08-12T03:25:02;95193.50;;;17.51;78.15
6393;BME280;3229;42.674;23.282;2023-08-12T03:27:29;95181.56;;;17.42;78.62
6393;BME280;3229;42.674;23.282;2023-08-12T03:29:56;95193.22;;;17.38;79.03
6393;BME280;3229;42.674;23.282;2023-08-12T03:32:24;95197.91;;;17.34;79.43
6393;BME280;3229;42.674;23.282;2023-08-12T03:34:51;95186.28;;;17.30;79.57
6393;BME280;3229;42.674;23.282;2023-08-12T03:37:18;95199.06;;;17.32;79.63
6393;BME280;3229;42.674;23.282;2023-08-12T03:39:46;95199.91;;;17.24;80.27
6393;BME280;3229;42.674;23.282;2023-08-12T03:42:13;95202.47;;;17.24;80.43
6393;BME280;3229;42.674;23.282;2023-08-12T03:44:40;95196.81;;;17.20;80.71
6393;BME280;3229;42.674;23.282;2023-08-12T03:47:07;95197.31;;;17.24;80.45
6393;BME280;3229;42.674;23.282;2023-08-12T03:49:34;95196.66;;;17.22;80.53
6393;BME280;3229;42.674;23.282;2023-08-12T03:52:01;95195.69;;;17.23;80.40
6393;BME280;3229;42.674;23.282;2023-08-12T03:54:28;95193.75;;;17.17;80.59
6393;BME280;3229;42.674;23.282;2023-08-12T03:56:56;95208.44;;;17.24;80.39
6393;BME280;3229;42.674;23.282;2023-08-12T03:59:23;95198.09;;;17.24;80.30
6393;BME280;3229;42.674;23.282;2023-08-12T04:01:50;95198.59;;;17.28;79.99
6393;BME280;3229;42.674;23.282;2023-08-12T04:04:16;95203.09;;;17.34;80.11
6393;BME280;3229;42.674;23.282;2023-08-12T04:06:43;95199.38;;;17.37;80.09
6393;BME280;3229;42.674;23.282;2023-08-12T04:09:10;95201.28;;;17.43;79.90
6393;BME280;3229;42.674;23.282;2023-08-12T04:11:37;95197.38;;;17.47;79.95
6393;BME280;3229;42.674;23.282;2023-08-12T04:14:05;95209.00;;;17.51;80.05
6393;BME280;3229;42.674;23.282;2023-08-12T04:16:32;95198.66;;;17.51;79.64
6393;BME280;3229;42.674;23.282;2023-08-12T04:18:58;95205.13;;;17.55;79.73
6393;BME280;3229;42.674;23.282;2023-08-12T04:21:25;95208.66;;;17.62;79.51
6393;BME280;3229;42.674;23.282;2023-08-12T04:23:52;95202.00;;;17.68;79.49
6393;BME280;3229;42.674;23.282;2023-08-12T04:26:19;95209.56;;;17.69;79.39
6393;BME280;3229;42.674;23.282;2023-08-12T04:28:45;95208.94;;;17.75;78.89
6393;BME280;3229;42.674;23.282;2023-08-12T04:31:14;95137.66;;;17.34;79.14
6393;BME280;3229;42.674;23.282;2023-08-12T04:33:40;95210.00;;;17.89;78.83
6393;BME280;3229;42.674;23.282;2023-08-12T04:36:07;95214.16;;;17.98;78.37
6393;BME280;3229;42.674;23.282;2023-08-12T04:38:34;95219.63;;;18.03;78.14
6393;BME280;3229;42.674;23.282;2023-08-12T04:41:02;95216.00;;;18.13;77.46
6393;BME280;3229;42.674;23.282;2023-08-12T04:43:28;95214.03;;;18.23;77.00
6393;BME280;3229;42.674;23.282;2023-08-12T04:45:55;95220.41;;;18.35;76.17
6393;BME280;3229;42.674;23.282;2023-08-12T04:48:23;95221.25;;;18.50;75.60
6393;BME280;3229;42.674;23.282;2023-08-12T04:50:50;95223.31;;;18.78;74.08
6393;BME280;3229;42.674;23.282;2023-08-12T04:53:17;95214.66;;;19.09;72.18
6393;BME280;3229;42.674;23.282;2023-08-12T04:55:44;95216.63;;;19.36;70.68
6393;BME280;3229;42.674;23.282;2023-08-12T04:58:10;95209.53;;;19.60;69.41
6393;BME280;3229;42.674;23.282;2023-08-12T05:00:37;95211.88;;;19.84;67.92
6393;BME280;3229;42.674;23.282;2023-08-12T05:03:04;95207.06;;;20.02;67.45
6393;BME280;3229;42.674;23.282;2023-08-12T05:05:32;95218.59;;;20.15;67.18
6393;BME280;3229;42.674;23.282;2023-08-12T05:07:59;95224.47;;;20.23;66.74
6393;BME280;3229;42.674;23.282;2023-08-12T05:10:26;95224.13;;;20.26;66.64
6393;BME280;3229;42.674;23.282;2023-08-12T05:12:52;95218.75;;;20.49;65.75
6393;BME280;3229;42.674;23.282;2023-08-12T05:15:19;95226.69;;;20.63;64.99
6393;BME280;3229;42.674;23.282;2023-08-12T05:17:46;95219.38;;;20.73;64.73
6393;BME280;3229;42.674;23.282;2023-08-12T05:20:13;95224.13;;;20.91;64.13
6393;BME280;3229;42.674;23.282;2023-08-12T05:22:41;95230.56;;;20.95;64.17
6393;BME280;3229;42.674;23.282;2023-08-12T05:25:08;95224.13;;;20.91;64.47
6393;BME280;3229;42.674;23.282;2023-08-12T05:27:35;95230.94;;;20.92;64.33
6393;BME280;3229;42.674;23.282;2023-08-12T05:30:02;95237.38;;;20.74;64.73
6393;BME280;3229;42.674;23.282;2023-08-12T05:32:29;95231.44;;;20.59;65.22
6393;BME280;3229;42.674;23.282;2023-08-12T05:34:56;95240.31;;;20.65;65.61
6393;BME280;3229;42.674;23.282;2023-08-12T05:37:23;95231.19;;;20.75;65.43
6393;BME280;3229;42.674;23.282;2023-08-12T05:39:51;95229.34;;;20.97;64.77
6393;BME280;3229;42.674;23.282;2023-08-12T05:42:18;95239.47;;;21.14;63.94
6393;BME280;3229;42.674;23.282;2023-08-12T05:44:44;95232.03;;;21.32;63.26
6393;BME280;3229;42.674;23.282;2023-08-12T05:47:11;95240.06;;;21.72;62.04
6393;BME280;3229;42.674;23.282;2023-08-12T05:49:38;95212.88;;;21.88;61.38
6393;BME280;3229;42.674;23.282;2023-08-12T05:52:05;95244.53;;;22.33;60.13
6393;BME280;3229;42.674;23.282;2023-08-12T05:54:32;95244.13;;;22.49;58.67
6393;BME280;3229;42.674;23.282;2023-08-12T05:57:00;95235.31;;;22.43;58.25
6393;BME280;3229;42.674;23.282;2023-08-12T05:59:26;95235.31;;;22.37;58.97
6393;BME280;3229;42.674;23.282;2023-08-12T06:01:53;95234.13;;;22.52;58.68
6393;BME280;3229;42.674;23.282;2023-08-12T06:04:20;95231.53;;;22.79;57.68
6393;BME280;3229;42.674;23.282;2023-08-12T06:06:47;95230.00;;;22.98;56.99
6393;BME280;3229;42.674;23.282;2023-08-12T06:09:14;95218.72;;;23.24;56.18
6393;BME280;3229;42.674;23.282;2023-08-12T06:11:40;95222.03;;;23.64;55.32
6393;BME280;3229;42.674;23.282;2023-08-12T06:14:09;95220.34;;;23.96;54.61
6393;BME280;3229;42.674;23.282;2023-08-12T06:16:35;95215.78;;;24.23;53.44
6393;BME280;3229;42.674;23.282;2023-08-12T06:19:02;95218.69;;;24.47;53.56
6393;BME280;3229;42.674;23.282;2023-08-12T06:21:29;95213.28;;;24.73;53.21
6393;BME280;3229;42.674;23.282;2023-08-12T06:23:56;95219.94;;;24.94;51.75
6393;BME280;3229;42.674;23.282;2023-08-12T06:26:23;95215.31;;;24.96;51.59
6393;BME280;3229;42.674;23.282;2023-08-12T06:28:49;95219.31;;;24.99;52.06
6393;BME280;3229;42.674;23.282;2023-08-12T06:31:18;95207.41;;;25.03;51.11
6393;BME280;3229;42.674;23.282;2023-08-12T06:33:44;95214.31;;;24.97;50.94
6393;BME280;3229;42.674;23.282;2023-08-12T06:36:11;95206.97;;;24.81;51.72
6393;BME280;3229;42.674;23.282;2023-08-12T06:38:38;95204.84;;;24.71;52.08
6393;BME280;3229;42.674;23.282;2023-08-12T06:41:05;95203.03;;;24.97;52.72
6393;BME280;3229;42.674;23.282;2023-08-12T06:43:31;95205.53;;;25.35;51.36
6393;BME280;3229;42.674;23.282;2023-08-12T06:45:58;95210.63;;;25.48;50.40
6393;BME280;3229;42.674;23.282;2023-08-12T06:48:26;95203.47;;;25.37;50.54
6393;BME280;3229;42.674;23.282;2023-08-12T06:50:54;95200.78;;;25.25;50.57
6393;BME280;3229;42.674;23.282;2023-08-12T06:53:21;95200.44;;;25.22;50.79
6393;BME280;3229;42.674;23.282;2023-08-12T06:55:48;95197.59;;;25.23;50.69
6393;BME280;3229;42.674;23.282;2023-08-12T06:58:15;95194.88;;;25.30;49.98
6393;BME280;3229;42.674;23.282;2023-08-12T07:00:42;95200.19;;;25.23;50.05
6393;BME280;3229;42.674;23.282;2023-08-12T07:03:08;95195.63;;;25.19;50.33
6393;BME280;3229;42.674;23.282;2023-08-12T07:05:37;95201.59;;;25.44;50.15
6393;BME280;3229;42.674;23.282;2023-08-12T07:08:04;95191.50;;;25.66;49.94
6393;BME280;3229;42.674;23.282;2023-08-12T07:10:33;95198.63;;;25.96;48.68
6393;BME280;3229;42.674;23.282;2023-08-12T07:13:03;95194.13;;;26.15;48.19
6393;BME280;3229;42.674;23.282;2023-08-12T07:15:30;95200.59;;;26.42;48.18
6393;BME280;3229;42.674;23.282;2023-08-12T07:17:56;95189.75;;;26.69;46.37
6393;BME280;3229;42.674;23.282;2023-08-12T07:20:24;95202.69;;;27.06;45.65
6393;BME280;3229;42.674;23.282;2023-08-12T07:22:52;95198.59;;;27.10;45.40
6393;BME280;3229;42.674;23.282;2023-08-12T07:25:19;95198.44;;;26.93;45.56
6393;BME280;3229;42.674;23.282;2023-08-12T07:27:45;95200.81;;;26.71;45.09
6393;BME280;3229;42.674;23.282;2023-08-12T07:30:12;95196.69;;;26.63;45.65
6393;BME280;3229;42.674;23.282;2023-08-12T07:32:39;95199.03;;;26.95;45.29
6393;BME280;3229;42.674;23.282;2023-08-12T07:35:08;95207.22;;;26.98;45.08
6393;BME280;3229;42.674;23.282;2023-08-12T07:37:35;95203.47;;;27.06;44.59
6393;BME280;3229;42.674;23.282;2023-08-12T07:40:03;95192.88;;;27.24;44.10
6393;BME280;3229;42.674;23.282;2023-08-12T07:42:30;95193.56;;;27.43;44.63
6393;BME280;3229;42.674;23.282;2023-08-12T07:44:57;95166.59;;;27.60;43.42
6393;BME280;3229;42.674;23.282;2023-08-12T07:47:24;95186.53;;;27.84;42.63
6393;BME280;3229;42.674;23.282;2023-08-12T07:49:51;95185.97;;;27.82;42.80
6393;BME280;3229;42.674;23.282;2023-08-12T07:52:18;95177.53;;;27.68;42.47
6393;BME280;3229;42.674;23.282;2023-08-12T07:54:44;95186.69;;;27.54;43.39
6393;BME280;3229;42.674;23.282;2023-08-12T07:57:13;95182.47;;;27.53;43.65
6393;BME280;3229;42.674;23.282;2023-08-12T07:59:40;95178.00;;;27.77;42.76
6393;BME280;3229;42.674;23.282;2023-08-12T08:02:07;95173.78;;;28.05;42.70
6393;BME280;3229;42.674;23.282;2023-08-12T08:04:33;95168.56;;;28.21;42.36
6393;BME280;3229;42.674;23.282;2023-08-12T08:07:00;95173.09;;;28.38;42.04
6393;BME280;3229;42.674;23.282;2023-08-12T08:09:30;95170.63;;;28.65;42.53
6393;BME280;3229;42.674;23.282;2023-08-12T08:11:59;95172.16;;;28.94;41.64
6393;BME280;3229;42.674;23.282;2023-08-12T08:14:27;95175.84;;;29.10;41.26
6393;BME280;3229;42.674;23.282;2023-08-12T08:16:55;95166.38;;;29.14;40.39
6393;BME280;3229;42.674;23.282;2023-08-12T08:19:22;95176.06;;;29.09;40.25
6393;BME280;3229;42.674;23.282;2023-08-12T08:21:49;95167.59;;;28.90;40.91
6393;BME280;3229;42.674;23.282;2023-08-12T08:24:16;95174.00;;;28.77;41.00
6393;BME280;3229;42.674;23.282;2023-08-12T08:26:43;95168.66;;;28.72;40.97
6393;BME280;3229;42.674;23.282;2023-08-12T08:29:11;95169.91;;;28.86;40.92
6393;BME280;3229;42.674;23.282;2023-08-12T08:31:39;95162.81;;;29.04;40.27
6393;BME280;3229;42.674;23.282;2023-08-12T08:34:06;95161.28;;;29.24;40.69
6393;BME280;3229;42.674;23.282;2023-08-12T08:36:32;95161.50;;;29.23;39.87
6393;BME280;3229;42.674;23.282;2023-08-12T08:38:59;95154.28;;;29.35;39.05
6393;BME280;3229;42.674;23.282;2023-08-12T08:41:28;95160.31;;;29.53;38.53
6393;BME280;3229;42.674;23.282;2023-08-12T08:44:01;95158.47;;;29.53;38.90
6393;BME280;3229;42.674;23.282;2023-08-12T08:46:29;95158.09;;;29.44;38.65
6393;BME280;3229;42.674;23.282;2023-08-12T08:48:58;95154.91;;;29.42;39.35
6393;BME280;3229;42.674;23.282;2023-08-12T08:51:25;95150.44;;;29.43;38.39
6393;BME280;3229;42.674;23.282;2023-08-12T08:53:53;95146.25;;;29.25;38.78
6393;BME280;3229;42.674;23.282;2023-08-12T08:56:21;95146.75;;;29.22;38.99
6393;BME280;3229;42.674;23.282;2023-08-12T08:58:48;95151.88;;;29.12;39.35
6393;BME280;3229;42.674;23.282;2023-08-12T09:01:18;95147.78;;;29.21;38.81
6393;BME280;3229;42.674;23.282;2023-08-12T09:03:47;95145.94;;;29.21;38.24
6393;BME280;3229;42.674;23.282;2023-08-12T09:06:17;95142.34;;;29.28;38.33
6393;BME280;3229;42.674;23.282;2023-08-12T09:08:45;95145.16;;;29.43;38.61
6393;BME280;3229;42.674;23.282;2023-08-12T09:11:15;95147.88;;;29.48;38.62
6393;BME280;3229;42.674;23.282;2023-08-12T09:13:43;95134.63;;;29.43;38.51
6393;BME280;3229;42.674;23.282;2023-08-12T09:16:10;95131.88;;;29.55;38.34
6393;BME280;3229;42.674;23.282;2023-08-12T09:18:37;95134.19;;;29.51;38.68
6393;BME280;3229;42.674;23.282;2023-08-12T09:21:04;95126.47;;;29.44;38.70
6393;BME280;3229;42.674;23.282;2023-08-12T09:23:35;95066.78;;;29.11;39.31
6393;BME280;3229;42.674;23.282;2023-08-12T09:26:11;95122.34;;;29.32;38.30
6393;BME280;3229;42.674;23.282;2023-08-12T09:28:39;95123.94;;;29.11;38.74
6393;BME280;3229;42.674;23.282;2023-08-12T09:31:05;95116.94;;;28.83;39.63
6393;BME280;3229;42.674;23.282;2023-08-12T09:33:32;95115.50;;;28.75;39.08
6393;BME280;3229;42.674;23.282;2023-08-12T09:36:05;95116.47;;;28.52;39.64
6393;BME280;3229;42.674;23.282;2023-08-12T09:38:31;95120.28;;;28.44;39.76
6393;BME280;3229;42.674;23.282;2023-08-12T09:41:00;95090.72;;;28.37;39.58
6393;BME280;3229;42.674;23.282;2023-08-12T09:43:28;95106.19;;;28.50;39.89
6393;BME280;3229;42.674;23.282;2023-08-12T09:45:56;95110.16;;;28.53;40.40
6393;BME280;3229;42.674;23.282;2023-08-12T09:48:24;95102.06;;;28.55;40.23
6393;BME280;3229;42.674;23.282;2023-08-12T09:50:52;95083.06;;;28.53;39.37
6393;BME280;3229;42.674;23.282;2023-08-12T09:53:19;95097.59;;;28.55;39.32
6393;BME280;3229;42.674;23.282;2023-08-12T09:55:47;95091.66;;;28.48;39.60
6393;BME280;3229;42.674;23.282;2023-08-12T09:58:17;95095.56;;;28.62;39.46
6393;BME280;3229;42.674;23.282;2023-08-12T10:00:45;95087.84;;;28.72;39.56
6393;BME280;3229;42.674;23.282;2023-08-12T10:03:13;95084.53;;;28.82;39.44
6393;BME280;3229;42.674;23.282;2023-08-12T10:05:40;95081.75;;;28.89;39.48
6393;BME280;3229;42.674;23.282;2023-08-12T10:08:08;95070.94;;;28.68;38.99
6393;BME280;3229;42.674;23.282;2023-08-12T10:10:35;95071.47;;;28.70;39.20
6393;BME280;3229;42.674;23.282;2023-08-12T10:13:02;95085.19;;;28.72;39.22
6393;BME280;3229;42.674;23.282;2023-08-12T10:15:34;95070.47;;;28.55;38.32
6393;BME280;3229;42.674;23.282;2023-08-12T10:18:01;95018.06;;;28.19;38.37
6393;BME280;3229;42.674;23.282;2023-08-12T10:20:29;95081.31;;;28.41;39.06
6393;BME280;3229;42.674;23.282;2023-08-12T10:22:59;95077.28;;;28.22;39.40
6393;BME280;3229;42.674;23.282;2023-08-12T10:25:31;95073.47;;;28.13;39.43
6393;BME280;3229;42.674;23.282;2023-08-12T10:27:59;95072.41;;;28.14;39.67
6393;BME280;3229;42.674;23.282;2023-08-12T10:30:28;95063.09;;;28.23;38.76
6393;BME280;3229;42.674;23.282;2023-08-12T10:32:58;95065.56;;;28.30;38.81
6393;BME280;3229;42.674;23.282;2023-08-12T10:35:43;95067.03;;;28.37;39.01
6393;BME280;3229;42.674;23.282;2023-08-12T10:38:11;95047.63;;;28.26;39.34
6393;BME280;3229;42.674;23.282;2023-08-12T10:40:39;95061.56;;;28.27;39.17
6393;BME280;3229;42.674;23.282;2023-08-12T10:43:06;95051.16;;;28.15;38.79
6393;BME280;3229;42.674;23.282;2023-08-12T10:45:45;95054.47;;;28.27;39.16
6393;BME280;3229;42.674;23.282;2023-08-12T10:48:22;95051.06;;;28.27;39.11
6393;BME280;3229;42.674;23.282;2023-08-12T10:50:54;95039.09;;;28.19;39.53
6393;BME280;3229;42.674;23.282;2023-08-12T10:53:25;95036.63;;;28.30;39.10
6393;BME280;3229;42.674;23.282;2023-08-12T10:55:57;95051.38;;;28.31;39.05
6393;BME280;3229;42.674;23.282;2023-08-12T10:58:26;95040.50;;;28.39;38.54
6393;BME280;3229;42.674;23.282;2023-08-12T11:00:53;95037.84;;;28.39;39.02
6393;BME280;3229;42.674;23.282;2023-08-12T11:03:22;95029.81;;;28.45;38.88
6393;BME280;3229;42.674;23.282;2023-08-12T11:05:49;95030.81;;;28.44;37.76
6393;BME280;3229;42.674;23.282;2023-08-12T11:08:24;95036.59;;;28.41;37.89
6393;BME280;3229;42.674;23.282;2023-08-12T11:10:54;95039.50;;;28.45;38.34
6393;BME280;3229;42.674;23.282;2023-08-12T11:13:21;95031.06;;;28.60;37.32
6393;BME280;3229;42.674;23.282;2023-08-12T11:15:48;95026.28;;;28.57;37.69
6393;BME280;3229;42.674;23.282;2023-08-12T11:18:16;95021.91;;;28.45;37.89
6393;BME280;3229;42.674;23.282;2023-08-12T11:20:47;95014.63;;;28.53;38.00
6393;BME280;3229;42.674;23.282;2023-08-12T11:23:14;95023.88;;;28.72;38.17
6393;BME280;3229;42.674;23.282;2023-08-12T11:25:42;95011.56;;;28.78;37.92
6393;BME280;3229;42.674;23.282;2023-08-12T11:28:10;95008.25;;;28.87;37.81
6393;BME280;3229;42.674;23.282;2023-08-12T11:30:36;95014.31;;;28.88;37.63
6393;BME280;3229;42.674;23.282;2023-08-12T11:33:06;95010.13;;;28.70;37.09
6393;BME280;3229;42.674;23.282;2023-08-12T11:35:34;95020.84;;;28.63;37.09
6393;BME280;3229;42.674;23.282;2023-08-12T11:38:05;95008.69;;;28.62;35.72
6393;BME280;3229;42.674;23.282;2023-08-12T11:40:32;95012.69;;;28.65;36.27
6393;BME280;3229;42.674;23.282;2023-08-12T11:42:58;94995.38;;;28.69;35.57
6393;BME280;3229;42.674;23.282;2023-08-12T11:45:26;95008.13;;;28.77;35.54
6393;BME280;3229;42.674;23.282;2023-08-12T11:47:54;95005.63;;;28.87;35.12
6393;BME280;3229;42.674;23.282;2023-08-12T11:50:23;95008.03;;;28.89;34.85
6393;BME280;3229;42.674;23.282;2023-08-12T11:52:51;95000.91;;;28.89;34.98
6393;BME280;3229;42.674;23.282;2023-08-12T11:55:19;95000.88;;;29.06;34.52
6393;BME280;3229;42.674;23.282;2023-08-12T11:57:47;94996.22;;;29.13;34.43
6393;BME280;3229;42.674;23.282;2023-08-12T12:00:14;94989.63;;;29.11;33.97
6393;BME280;3229;42.674;23.282;2023-08-12T12:02:47;94982.72;;;29.10;34.01
6393;BME280;3229;42.674;23.282;2023-08-12T12:05:15;94995.09;;;29.09;33.87
6393;BME280;3229;42.674;23.282;2023-08-12T12:07:43;94989.47;;;29.00;34.52
6393;BME280;3229;42.674;23.282;2023-08-12T12:10:13;94992.38;;;28.99;34.62
6393;BME280;3229;42.674;23.282;2023-08-12T12:12:44;94987.19;;;28.87;35.38
6393;BME280;3229;42.674;23.282;2023-08-12T12:15:12;94986.50;;;28.75;34.96
6393;BME280;3229;42.674;23.282;2023-08-12T12:17:40;94990.97;;;28.74;35.16
6393;BME280;3229;42.674;23.282;2023-08-12T12:20:08;94980.94;;;28.71;35.06
6393;BME280;3229;42.674;23.282;2023-08-12T12:22:37;94993.38;;;28.76;34.56
6393;BME280;3229;42.674;23.282;2023-08-12T12:25:08;94985.34;;;28.88;35.81
6393;BME280;3229;42.674;23.282;2023-08-12T12:27:36;94962.59;;;28.77;37.63
6393;BME280;3229;42.674;23.282;2023-08-12T12:30:07;94978.19;;;28.83;38.74
6393;BME280;3229;42.674;23.282;2023-08-12T12:32:34;94975.50;;;28.78;38.56
6393;BME280;3229;42.674;23.282;2023-08-12T12:35:01;94981.66;;;28.67;38.92
6393;BME280;3229;42.674;23.282;2023-08-12T12:37:29;94972.31;;;28.54;38.74
6393;BME280;3229;42.674;23.282;2023-08-12T12:39:56;94955.31;;;28.45;38.95
6393;BME280;3229;42.674;23.282;2023-08-12T12:42:22;94975.88;;;28.48;39.42
6393;BME280;3229;42.674;23.282;2023-08-12T12:44:49;94969.44;;;28.39;39.09
6393;BME280;3229;42.674;23.282;2023-08-12T12:47:19;94969.34;;;28.34;39.04
6393;BME280;3229;42.674;23.282;2023-08-12T12:49:46;94971.66;;;28.30;39.31
6393;BME280;3229;42.674;23.282;2023-08-12T12:52:13;94974.13;;;28.37;39.33
6393;BME280;3229;42.674;23.282;2023-08-12T12:54:40;94967.25;;;28.53;39.26
6393;BME280;3229;42.674;23.282;2023-08-12T12:57:06;94960.59;;;28.67;39.56
6393;BME280;3229;42.674;23.282;2023-08-12T12:59:33;94962.88;;;28.80;39.09
6393;BME280;3229;42.674;23.282;2023-08-12T13:02:00;94954.63;;;28.71;37.83
6393;BME280;3229;42.674;23.282;2023-08-12T13:04:28;94954.13;;;28.74;37.55
6393;BME280;3229;42.674;23.282;2023-08-12T13:06:55;94952.34;;;28.80;37.44
6393;BME280;3229;42.674;23.282;2023-08-12T13:09:22;94957.13;;;28.83;37.40
6393;BME280;3229;42.674;23.282;2023-08-12T13:11:49;94952.59;;;28.79;37.63